Haines, AK

4:44 AM AKST on February 07, 2016 (GMT -0900)
Haines | | Change Station
CLOSE
Current Station
Airport
Location: Haines,
Elevation: 16 ft
Nearby Weather Stations

Elev 16 ft 59.24 °N, 135.51 °W | Updated 50 minutes ago

Scattered Clouds
Scattered Clouds
30 °F
Feels Like 20 °F
N
12
Wind Variable Wind from WNW

Today
High -- | Low -- °F
--% Chance of Precip.
Yesterday
High -- | Low -- °F
Precip. -- in
Pressure 30.15 in
Visibility 10.0 miles
Clouds Scattered Clouds 12000 ft
Windchill 20 °F
Dew Point 27 °F
Humidity 88%
Rainfall 0.00 in
Snow Depth Not available.
7:58 AM 4:34 PM
Waning Crescent, 1% visible
METAR PAHN 071254Z AUTO 30010KT 10SM SCT120 M01/M03 A3015 RMK AO2 SLP210 T10111028 TSNO
Pressure 30.15 in
Visibility 10.0 miles
Clouds Scattered Clouds 12000 ft
Windchill 20 °F
Dew Point 27 °F
Humidity 88%
Rainfall 0.00 in
Snow Depth Not available.
7:58 AM 4:34 PM
Waning Crescent, 1% visible
METAR PAHN 071254Z AUTO 30010KT 10SM SCT120 M01/M03 A3015 RMK AO2 SLP210 T10111028 TSNO

10-Day Weather Forecast

Almanac

Astronomy

Feb. 07, 2016 Rise Set
Actual Time
Civil Twilight
Nautical Twilight
Astronomical Twilight
Moon
Length of Visible Light
Length of Day
Tomorrow will be .
, % of the Moon is Illuminated

Today's Extremes

State Highs State Lows

Community

WunderPhotos

Upload Photos

1,891,190 photos uploaded!

WunderBlog® & News

Nearby

Air Quality

  Air Quality AQ Index Pollutant
Not available.

Snow Depth

Station Depth Elevation

Earthquake Activity

City Distance Mag. Time & Date
Minimum magnitude displayed is 2.5.

Coastal Water Temperatures

Place Temperature

Stations

Nearby Weather Stations

Station Location Temp. Windchill Dew Point Humidity Wind Precip. Elev Updated Type
                   

Watches & Warnings

There are currently no watches in effect.